Terminal Aerodrome Forecast
Issued by NWS Grand Forks, ND

Home | Current Version | Previous Version | Text Only | Print | Product List | Glossary Off
Versions: 1 2 3 4 5 6 7 8 9 10 11 12 13 14

000
FTUS43 KFGF 172300
TAFGFK
TAF
KGFK 172322Z 1800/1824 06007KT P6SM SKC
     FM180200 10007KT P6SM SCT100
     FM181400 13014KT P6SM OVC100
     FM181700 13024G30KT P6SM OVC100=

USA.gov is the U.S. government's official web portal to all federal, state and local government web resources and services.